Naxos Star — SX2840 — position and weather

sailwx.info

Track history (hours):
 
Tides and Currents Weather Stations Pressure Air Temp Water Temp Dewpoint Dewpoint Depression Visibility Wind Speed Wind Dir Waves Ship Positions

Naxos Star

Last reported at 2017-Sep-23 23:31 UTC. Time now 2017-Sep-24 00:01 UTC.
Position N 37°06' E 025°22'.

Length 41 m; draft 2.2 m.

Type: Passenger vessel. MMSI: 237018200.

Date/timePositionNaut miles runAvg speedWind from/ knotsBaromVisibWave heightAir tempDewpointWater temp
2017-Sep-23 23:31N 37°06' E 025°22'0 0.0
2017-Sep-23 23:00N 37°06' E 025°22'0 0.0
2017-Sep-23 22:30N 37°06' E 025°22'0 0.0
2017-Sep-23 22:01N 37°06' E 025°22'0 0.0
2017-Sep-23 21:31N 37°06' E 025°22'0 0.0
2017-Sep-23 21:01N 37°06' E 025°22'0 0.0
2017-Sep-23 20:31N 37°06' E 025°22'0 0.0
2017-Sep-23 20:01N 37°06' E 025°22'0 0.0
2017-Sep-22 02:00N 37°06' E 025°22'0 0.0
2017-Sep-22 01:30N 37°06' E 025°22'0 0.0
2017-Sep-22 01:00N 37°06' E 025°22'0 0.0
2017-Sep-22 00:30N 37°06' E 025°22'0 0.0
2017-Sep-22 00:00N 37°06' E 025°22'0 0.0
2017-Sep-21 23:30N 37°06' E 025°22'0 0.0
2017-Sep-21 23:00N 37°06' E 025°22'0 0.0
2017-Sep-21 22:30N 37°06' E 025°22'0 0.0
2017-Sep-21 22:00N 37°06' E 025°22'0 0.0
2017-Sep-21 21:30N 37°06' E 025°22'0 0.0
2017-Sep-21 21:00N 37°06' E 025°22'0 0.0
2017-Sep-21 20:30N 37°06' E 025°22'0 0.0
2017-Sep-21 20:00N 37°06' E 025°22'0 0.0
2017-Sep-21 19:30N 37°06' E 025°22'0 0.0
2017-Sep-21 19:00N 37°06' E 025°22'0 0.0
2017-Sep-21 18:30N 37°06' E 025°22'0 0.0
2017-Sep-21 18:00N 37°06' E 025°22'0 0.0
2017-Sep-21 17:30N 37°06' E 025°22'0 0.0
2017-Sep-21 17:00N 37°06' E 025°22'0 0.0
2017-Sep-21 16:30N 37°06' E 025°22'3 5.1
2017-Sep-21 16:00N 37°08' E 025°20'5 8.4
2017-Sep-21 15:27N 37°08' E 025°14'614.4
2017-Sep-21 15:00N 37°14' E 025°17'815.8
2017-Sep-21 14:30N 37°21' E 025°19'611.3
2017-Sep-21 14:00N 37°27' E 025°20'0 0.0
2017-Sep-21 13:30N 37°27' E 025°20'0 0.0
2017-Sep-21 13:00N 37°27' E 025°20'0 0.0
2017-Sep-21 12:30N 37°27' E 025°20'0 0.0
2017-Sep-21 12:00N 37°27' E 025°20'0 0.0
2017-Sep-21 11:30N 37°27' E 025°20'0 0.0
2017-Sep-21 11:00N 37°27' E 025°20'2 4.8
2017-Sep-21 10:31N 37°26' E 025°17'2 4.1
2017-Sep-21 10:00N 37°24' E 025°16'0 0.0
2017-Sep-21 09:30N 37°24' E 025°16'0 0.0
2017-Sep-21 09:00N 37°24' E 025°16'0 0.0
2017-Sep-21 08:30N 37°24' E 025°16'0 0.0
2017-Sep-21 08:01N 37°24' E 025°16'1 1.9
2017-Sep-21 07:30N 37°23' E 025°16'815.1
2017-Sep-21 07:00N 37°16' E 025°19'714.8
2017-Sep-21 06:30N 37°09' E 025°22'2 4.1
2017-Sep-21 06:00N 37°07' E 025°21'6 6.1
2017-Sep-21 05:04N 37°08' E 025°14'115.4
2017-Sep-21 05:01N 37°08' E 025°15'612.7
2017-Sep-21 04:30N 37°06' E 025°22'0 0.1
2017-Sep-21 04:00N 37°06' E 025°22'0 0.0
2017-Sep-21 03:30N 37°06' E 025°22'0 0.0
2017-Sep-21 03:00N 37°06' E 025°22'0 0.0
2017-Sep-21 02:30N 37°06' E 025°22'0 0.0
2017-Sep-21 02:00N 37°06' E 025°22'0 0.0
2017-Sep-21 01:30N 37°06' E 025°22'0 0.0
2017-Sep-21 01:00N 37°06' E 025°22'0 0.0
2017-Sep-21 00:30N 37°06' E 025°22'0 0.0
2017-Sep-21 00:00N 37°06' E 025°22'0 0.0
2017-Sep-20 23:30N 37°06' E 025°22'0 0.0
2017-Sep-20 23:00N 37°06' E 025°22'0 0.0
2017-Sep-20 22:30N 37°06' E 025°22'0 0.0
2017-Sep-20 22:00N 37°06' E 025°22'0 0.0
2017-Sep-20 21:30N 37°06' E 025°22'0 0.0
2017-Sep-20 21:00N 37°06' E 025°22'0 0.0
2017-Sep-20 20:30N 37°06' E 025°22'0 0.0
2017-Sep-20 20:00N 37°06' E 025°22'0 0.0
2017-Sep-20 19:30N 37°06' E 025°22'0 0.0
2017-Sep-20 19:00N 37°06' E 025°22'0 0.0
2017-Sep-20 18:30N 37°06' E 025°22'0 0.0
2017-Sep-20 18:00N 37°06' E 025°22'2 5.0
2017-Sep-20 17:31N 37°05' E 025°20'5 9.2
2017-Sep-20 17:01N 37°02' E 025°16'3 0.2
2017-Sep-20 05:19N 36°59' E 025°16'3 9.0
2017-Sep-20 05:00N 37°02' E 025°16'612.2
2017-Sep-20 04:30N 37°06' E 025°21'1 1.9
2017-Sep-20 04:00N 37°06' E 025°22'0 0.0
2017-Sep-20 03:30N 37°06' E 025°22'0 0.0
2017-Sep-20 03:00N 37°06' E 025°22'0 0.0
2017-Sep-20 02:30N 37°06' E 025°22'0 0.0
2017-Sep-20 02:00N 37°06' E 025°22'0 0.0
2017-Sep-20 01:30N 37°06' E 025°22'0 0.0
2017-Sep-20 01:00N 37°06' E 025°22'0 0.0
2017-Sep-20 00:30N 37°06' E 025°22'0 0.0
2017-Sep-20 00:00N 37°06' E 025°22'0 0.0
2017-Sep-19 23:31N 37°06' E 025°22'0 0.0
2017-Sep-19 23:00N 37°06' E 025°22'0 0.0
2017-Sep-19 22:30N 37°06' E 025°22'0 0.0
2017-Sep-19 22:00N 37°06' E 025°22'0 0.0
2017-Sep-19 21:30N 37°06' E 025°22'0 0.0
2017-Sep-19 21:00N 37°06' E 025°22'0 0.0
2017-Sep-19 20:30N 37°06' E 025°22'0 0.0
2017-Sep-19 20:00N 37°06' E 025°22'0 0.0
2017-Sep-19 19:30N 37°06' E 025°22'0 0.0
2017-Sep-19 19:00N 37°06' E 025°22'0 0.0
2017-Sep-19 18:30N 37°06' E 025°22'0 0.0
2017-Sep-19 18:00N 37°06' E 025°22'0 0.0
2017-Sep-19 17:30N 37°06' E 025°22'0 0.0
2017-Sep-19 17:00N 37°06' E 025°22'0 0.0
2017-Sep-19 16:30N 37°06' E 025°22'1 2.8
2017-Sep-19 16:01N 37°07' E 025°21'510.7
2017-Sep-19 15:30N 37°08' E 025°14'510.3
2017-Sep-19 15:00N 37°13' E 025°15'816.3
2017-Sep-19 14:30N 37°21' E 025°17'713.6
2017-Sep-19 14:00N 37°27' E 025°20'0 0.0
2017-Sep-19 13:30N 37°27' E 025°20'0 0.0
2017-Sep-19 11:31N 37°27' E 025°20'0 0.1
2017-Sep-19 11:27N 37°27' E 025°20'0 0.0
2017-Sep-19 10:58N 37°27' E 025°20'2 5.3
2017-Sep-19 10:30N 37°26' E 025°17'2 4.0
2017-Sep-19 10:00N 37°24' E 025°16'0 0.0
2017-Sep-19 09:30N 37°24' E 025°16'0 0.0
2017-Sep-19 09:00N 37°24' E 025°16'0 0.0
2017-Sep-19 08:30N 37°24' E 025°16'0 0.0
2017-Sep-19 08:00N 37°24' E 025°16'0 0.0
2017-Sep-19 07:30N 37°24' E 025°16'714.1
2017-Sep-19 07:00N 37°17' E 025°18'815.9
2017-Sep-19 06:30N 37°09' E 025°21'2 4.0
2017-Sep-19 06:00N 37°07' E 025°21'510.3
2017-Sep-19 05:30N 37°08' E 025°14'1 2.1
2017-Sep-19 05:00N 37°08' E 025°15'612.8
2017-Sep-19 04:30N 37°06' E 025°22'0 0.0
2017-Sep-19 04:00N 37°06' E 025°22'0 0.0
2017-Sep-19 03:30N 37°06' E 025°22'0 0.0
2017-Sep-19 03:00N 37°06' E 025°22'0 0.0
2017-Sep-19 02:30N 37°06' E 025°22'0 0.0
2017-Sep-19 02:00N 37°06' E 025°22'0 0.0
2017-Sep-19 01:30N 37°06' E 025°22'0 0.0
2017-Sep-19 01:00N 37°06' E 025°22'0 0.0
2017-Sep-19 00:30N 37°06' E 025°22'0 0.0
2017-Sep-19 00:00N 37°06' E 025°22'0 0.0
2017-Sep-18 23:30N 37°06' E 025°22'0 0.0
2017-Sep-18 23:00N 37°06' E 025°22'0 0.0
2017-Sep-18 22:30N 37°06' E 025°22'0 0.0
2017-Sep-18 22:00N 37°06' E 025°22'0 0.0
2017-Sep-18 21:30N 37°06' E 025°22'0 0.0
2017-Sep-18 21:00N 37°06' E 025°22'0 0.0
2017-Sep-18 20:30N 37°06' E 025°22'0 0.0
2017-Sep-18 20:00N 37°06' E 025°22'0 0.0
2017-Sep-18 19:30N 37°06' E 025°22'0 0.0
2017-Sep-18 19:00N 37°06' E 025°22'0 0.0
2017-Sep-18 18:30N 37°06' E 025°22'0 0.0
2017-Sep-18 18:00N 37°06' E 025°22'0 0.0
2017-Sep-18 17:30N 37°06' E 025°22'0 0.0
2017-Sep-18 17:00N 37°06' E 025°22'0 0.0
2017-Sep-18 16:30N 37°06' E 025°22'0 0.0
2017-Sep-18 16:00N 37°06' E 025°22'0 0.1
2017-Sep-18 15:30N 37°06' E 025°22'612.8
2017-Sep-18 15:00N 37°08' E 025°15'3 7.0
2017-Sep-18 14:30N 37°12' E 025°15'816.5
2017-Sep-18 14:00N 37°20' E 025°17'8 4.1
2017-Sep-18 12:08N 37°27' E 025°20'0 0.0
2017-Sep-18 12:00N 37°27' E 025°20'0 0.0
2017-Sep-18 10:23N 37°27' E 025°20'3 7.6
2017-Sep-18 10:00N 37°25' E 025°17'2 3.3
2017-Sep-18 09:30N 37°24' E 025°16'0 0.0
2017-Sep-18 09:00N 37°24' E 025°16'0 0.0
2017-Sep-18 08:30N 37°24' E 025°16'0 0.0
2017-Sep-18 08:00N 37°24' E 025°16'0 0.0
2017-Sep-18 07:30N 37°24' E 025°16'0 0.6
2017-Sep-18 07:00N 37°24' E 025°16'815.8
2017-Sep-18 06:30N 37°16' E 025°15'815.7
2017-Sep-18 06:00N 37°08' E 025°14'4 7.1
2017-Sep-18 05:30N 37°09' E 025°18'4 8.1
2017-Sep-18 05:00N 37°06' E 025°22'0 0.0
2017-Sep-18 04:30N 37°06' E 025°22'0 0.0
2017-Sep-18 04:00N 37°06' E 025°22'0 0.0
2017-Sep-18 03:30N 37°06' E 025°22'0 0.0
2017-Sep-18 03:00N 37°06' E 025°22'0 0.0
2017-Sep-18 02:30N 37°06' E 025°22'0 0.0
2017-Sep-18 02:00N 37°06' E 025°22'0 0.0
2017-Sep-18 01:30N 37°06' E 025°22'0 0.0
2017-Sep-18 01:00N 37°06' E 025°22'0 0.0
2017-Sep-18 00:30N 37°06' E 025°22'0 0.0
2017-Sep-18 00:00N 37°06' E 025°22'0 0.0
2017-Sep-17 23:30N 37°06' E 025°22'0 0.0
2017-Sep-17 23:00N 37°06' E 025°22'0 0.0
2017-Sep-17 22:30N 37°06' E 025°22'0 0.0
2017-Sep-17 22:00N 37°06' E 025°22'0 0.0
2017-Sep-17 21:30N 37°06' E 025°22'0 0.0
2017-Sep-17 21:00N 37°06' E 025°22'0 0.0
2017-Sep-17 20:30N 37°06' E 025°22'0 0.0
2017-Sep-17 20:00N 37°06' E 025°22'0 0.0
2017-Sep-17 19:30N 37°06' E 025°22'0 0.0
2017-Sep-17 19:00N 37°06' E 025°22'0 0.0
2017-Sep-17 18:30N 37°06' E 025°22'0 0.0
2017-Sep-17 18:00N 37°06' E 025°22'0 0.0
2017-Sep-17 17:30N 37°06' E 025°22'0 0.0
2017-Sep-17 17:00N 37°06' E 025°22'0 0.0
2017-Sep-17 16:30N 37°06' E 025°22'0 0.0
2017-Sep-17 16:00N 37°06' E 025°22'0 0.0
2017-Sep-17 15:30N 37°06' E 025°22'2 4.3
2017-Sep-17 15:01N 37°05' E 025°20'5 9.8
2017-Sep-17 14:30N 37°02' E 025°16'3 0.2
2017-Sep-17 03:06N 36°59' E 025°16'216.0
2017-Sep-17 03:00N 37°01' E 025°16'1 2.2
2017-Sep-17 02:30N 37°02' E 025°16'612.9
2017-Sep-17 02:00N 37°06' E 025°22'1 1.2
2017-Sep-17 01:30N 37°06' E 025°22'0 0.0
2017-Sep-17 01:00N 37°06' E 025°22'0 0.0
2017-Sep-17 00:30N 37°06' E 025°22'0 0.0
2017-Sep-17 00:00N 37°06' E 025°22'0 0.0
2017-Sep-16 23:30N 37°06' E 025°22'0 0.0
2017-Sep-16 23:00N 37°06' E 025°22'0 0.0
2017-Sep-16 22:30N 37°06' E 025°22'0 0.0
2017-Sep-16 22:00N 37°06' E 025°22'0 0.0
2017-Sep-16 21:30N 37°06' E 025°22'0 0.0
2017-Sep-16 21:00N 37°06' E 025°22'0 0.0
2017-Sep-16 20:30N 37°06' E 025°22'0 0.0
2017-Sep-16 20:00N 37°06' E 025°22'0 0.0
2017-Sep-16 19:30N 37°06' E 025°22'0 0.0
2017-Sep-16 19:00N 37°06' E 025°22'0 0.0
2017-Sep-16 18:30N 37°06' E 025°22'0 0.0
2017-Sep-16 18:00N 37°06' E 025°22'0 0.0
2017-Sep-16 17:30N 37°06' E 025°22'0 0.0
2017-Sep-16 17:00N 37°06' E 025°22'0 0.0
2017-Sep-16 16:30N 37°06' E 025°22'3 5.8
2017-Sep-16 16:00N 37°08' E 025°20'4 8.5
2017-Sep-16 15:30N 37°08' E 025°14'714.7
2017-Sep-16 15:00N 37°15' E 025°16'816.0
2017-Sep-16 14:30N 37°22' E 025°17'5 9.3
2017-Sep-16 13:58N 37°27' E 025°20'0 0.0
2017-Sep-16 13:30N 37°27' E 025°20'0 0.0
2017-Sep-16 12:59N 37°27' E 025°20'0 0.0
2017-Sep-16 12:19N 37°27' E 025°20'0 0.0
2017-Sep-16 12:00N 37°27' E 025°20'0 0.0
2017-Sep-16 11:30N 37°27' E 025°20'0 0.0
2017-Sep-16 11:00N 37°27' E 025°20'4 8.8
2017-Sep-16 10:31N 37°24' E 025°16'0 0.2
2017-Sep-16 10:01N 37°24' E 025°16'0 0.0
2017-Sep-16 09:31N 37°24' E 025°16'0 0.0
2017-Sep-16 09:00N 37°24' E 025°16'0 0.0
2017-Sep-16 08:30N 37°24' E 025°16'0 0.0
2017-Sep-16 08:00N 37°24' E 025°16'5 9.3
2017-Sep-16 07:30N 37°19' E 025°15'816.0
2017-Sep-16 07:01N 37°11' E 025°14'3 6.6
2017-Sep-16 06:30N 37°08' E 025°14'612.9
2017-Sep-16 06:01N 37°06' E 025°22'0 0.3
2017-Sep-16 05:30N 37°06' E 025°22'0 0.0
2017-Sep-16 05:00N 37°06' E 025°22'0 0.0
2017-Sep-16 04:30N 37°06' E 025°22'0 0.0
2017-Sep-16 04:00N 37°06' E 025°22'0 0.0
2017-Sep-16 03:30N 37°06' E 025°22'0 0.0
2017-Sep-16 03:00N 37°06' E 025°22'0 0.0
2017-Sep-16 02:30N 37°06' E 025°22'0 0.0
2017-Sep-16 02:00N 37°06' E 025°22'0 0.0
2017-Sep-16 01:30N 37°06' E 025°22'0 0.0
2017-Sep-16 01:00N 37°06' E 025°22'0 0.0
2017-Sep-16 00:30N 37°06' E 025°22'0 0.0
2017-Sep-16 00:00N 37°06' E 025°22'0 0.0
2017-Sep-15 23:30N 37°06' E 025°22'0 0.0
2017-Sep-15 23:00N 37°06' E 025°22'0 0.0
2017-Sep-15 22:30N 37°06' E 025°22'0 0.0
2017-Sep-15 22:00N 37°06' E 025°22'0 0.0
2017-Sep-15 21:30N 37°06' E 025°22'0 0.0
2017-Sep-15 21:00N 37°06' E 025°22'0 0.0
2017-Sep-15 20:31N 37°06' E 025°22'0 0.0
2017-Sep-15 20:00N 37°06' E 025°22'0 0.0
2017-Sep-15 19:30N 37°06' E 025°22'0 0.0
2017-Sep-15 19:00N 37°06' E 025°22'0 0.0
2017-Sep-15 18:30N 37°06' E 025°22'0 0.0
2017-Sep-15 18:00N 37°06' E 025°22'0 0.0
2017-Sep-15 17:30N 37°06' E 025°22'0 0.0
2017-Sep-15 17:00N 37°06' E 025°22'0 0.0
2017-Sep-15 16:30N 37°06' E 025°22'0 0.0
2017-Sep-15 16:00N 37°06' E 025°22'0 0.0
2017-Sep-15 15:30N 37°06' E 025°22'612.7
2017-Sep-15 15:00N 37°09' E 025°15'3 5.6
2017-Sep-15 14:30N 37°11' E 025°15'816.0
2017-Sep-15 14:00N 37°19' E 025°16'815.5
2017-Sep-15 13:30N 37°27' E 025°19'1 1.1
2017-Sep-15 13:00N 37°27' E 025°20'0 0.0
2017-Sep-15 12:29N 37°27' E 025°20'0 0.0
2017-Sep-15 12:00N 37°27' E 025°20'0 0.0
2017-Sep-15 11:28N 37°27' E 025°20'0 0.0
2017-Sep-15 10:57N 37°27' E 025°20'0 0.0
2017-Sep-15 10:30N 37°27' E 025°20'4 9.0
2017-Sep-15 10:00N 37°24' E 025°16'0 0.1
2017-Sep-15 09:30N 37°24' E 025°16'0 0.0
2017-Sep-15 09:00N 37°24' E 025°16'0 0.0
2017-Sep-15 08:30N 37°24' E 025°16'0 0.0
2017-Sep-15 08:00N 37°24' E 025°16'0 0.0
2017-Sep-15 07:30N 37°24' E 025°16'2 3.0
2017-Sep-15 07:00N 37°22' E 025°15'816.0
2017-Sep-15 06:30N 37°14' E 025°14'710.0
2017-Sep-15 05:49N 37°08' E 025°14'411.8
2017-Sep-15 05:31N 37°09' E 025°18'4 8.7
2017-Sep-15 05:00N 37°06' E 025°22'0 0.0
2017-Sep-15 04:30N 37°06' E 025°22'0 0.0
2017-Sep-15 04:00N 37°06' E 025°22'0 0.0
2017-Sep-15 03:30N 37°06' E 025°22'0 0.0
2017-Sep-15 03:00N 37°06' E 025°22'0 0.0
2017-Sep-15 02:30N 37°06' E 025°22'0 0.0
2017-Sep-15 02:00N 37°06' E 025°22'0 0.0
2017-Sep-15 01:30N 37°06' E 025°22'0 0.0
2017-Sep-15 01:00N 37°06' E 025°22'0 0.0
2017-Sep-15 00:30N 37°06' E 025°22'0 0.0
2017-Sep-15 00:00N 37°06' E 025°22'0 0.0
2017-Sep-14 23:30N 37°06' E 025°22'0 0.0
2017-Sep-14 23:00N 37°06' E 025°22'0 0.0
2017-Sep-14 22:30N 37°06' E 025°22'0 0.0
2017-Sep-14 22:00N 37°06' E 025°22'0 0.0
2017-Sep-14 21:30N 37°06' E 025°22'0 0.0
2017-Sep-14 21:00N 37°06' E 025°22'0 0.0
2017-Sep-14 20:30N 37°06' E 025°22'0 0.0
2017-Sep-14 20:00N 37°06' E 025°22'0 0.0
2017-Sep-14 19:30N 37°06' E 025°22'0 0.0
2017-Sep-14 19:00N 37°06' E 025°22'0 0.0
2017-Sep-14 18:30N 37°06' E 025°22'0 0.0
2017-Sep-14 18:00N 37°06' E 025°22'0 0.0
2017-Sep-14 17:30N 37°06' E 025°22'0 0.0
2017-Sep-14 17:00N 37°06' E 025°22'0 0.0
2017-Sep-14 16:30N 37°06' E 025°22'3 5.4
2017-Sep-14 16:01N 37°08' E 025°20'5 9.0
2017-Sep-14 15:30N 37°08' E 025°14'714.9
2017-Sep-14 15:00N 37°15' E 025°14'714.9
2017-Sep-14 14:31N 37°22' E 025°16'610.6
2017-Sep-14 13:59N 37°27' E 025°20'0 0.0
2017-Sep-14 13:25N 37°27' E 025°20'0 0.0
2017-Sep-14 12:50N 37°27' E 025°20'0 0.0
2017-Sep-14 12:30N 37°27' E 025°20'0 0.0
2017-Sep-14 12:00N 37°27' E 025°20'0 0.0
2017-Sep-14 11:28N 37°27' E 025°20'0 0.0
2017-Sep-14 11:00N 37°27' E 025°20'4 8.4
2017-Sep-14 10:30N 37°24' E 025°16'0 0.5
2017-Sep-14 10:00N 37°24' E 025°16'0 0.0
2017-Sep-14 09:30N 37°24' E 025°16'0 0.0
2017-Sep-14 09:00N 37°24' E 025°16'0 0.0
2017-Sep-14 08:30N 37°24' E 025°16'0 0.0
2017-Sep-14 08:00N 37°24' E 025°16'0 0.3
2017-Sep-14 07:31N 37°24' E 025°16'815.6
2017-Sep-14 07:01N 37°16' E 025°18'815.7
2017-Sep-14 06:31N 37°09' E 025°21'2 3.4
2017-Sep-14 06:01N 37°07' E 025°21'610.1
2017-Sep-14 05:28N 37°08' E 025°14'1 1.6
2017-Sep-14 05:01N 37°08' E 025°15'612.9
2017-Sep-14 04:30N 37°06' E 025°22'0 0.2
2017-Sep-14 04:00N 37°06' E 025°22'0 0.0
2017-Sep-14 03:30N 37°06' E 025°22'0 0.0
2017-Sep-14 03:00N 37°06' E 025°22'0 0.0
2017-Sep-14 02:30N 37°06' E 025°22'0 0.0
2017-Sep-14 02:00N 37°06' E 025°22'0 0.0
2017-Sep-14 01:30N 37°06' E 025°22'0 0.0
2017-Sep-14 01:00N 37°06' E 025°22'0 0.0
2017-Sep-14 00:30N 37°06' E 025°22'0 0.0
2017-Sep-14 00:00N 37°06' E 025°22'  
Track history (hours):
 
Tides and Currents Weather Stations Pressure Air Temp Water Temp Dewpoint Dewpoint Depression Visibility Wind Speed Wind Dir Waves Ship Positions

Naxos Star

Last reported at 2017-Sep-23 23:31 UTC. Time now 2017-Sep-24 00:01 UTC.
Position N 37°06' E 025°22'.

Length 41 m; draft 2.2 m.

Type: Passenger vessel. MMSI: 237018200.

Date/timePositionNaut miles runAvg speedWind from/ knotsBaromVisibWave heightAir tempDewpointWater temp
2017-Sep-23 23:31N 37°06' E 025°22'0 0.0
2017-Sep-23 23:00N 37°06' E 025°22'0 0.0
2017-Sep-23 22:30N 37°06' E 025°22'0 0.0
2017-Sep-23 22:01N 37°06' E 025°22'0 0.0
2017-Sep-23 21:31N 37°06' E 025°22'0 0.0
2017-Sep-23 21:01N 37°06' E 025°22'0 0.0
2017-Sep-23 20:31N 37°06' E 025°22'0 0.0
2017-Sep-23 20:01N 37°06' E 025°22'0 0.0
2017-Sep-22 02:00N 37°06' E 025°22'0 0.0
2017-Sep-22 01:30N 37°06' E 025°22'0 0.0
2017-Sep-22 01:00N 37°06' E 025°22'0 0.0
2017-Sep-22 00:30N 37°06' E 025°22'0 0.0
2017-Sep-22 00:00N 37°06' E 025°22'0 0.0
2017-Sep-21 23:30N 37°06' E 025°22'0 0.0
2017-Sep-21 23:00N 37°06' E 025°22'0 0.0
2017-Sep-21 22:30N 37°06' E 025°22'0 0.0
2017-Sep-21 22:00N 37°06' E 025°22'0 0.0
2017-Sep-21 21:30N 37°06' E 025°22'0 0.0
2017-Sep-21 21:00N 37°06' E 025°22'0 0.0
2017-Sep-21 20:30N 37°06' E 025°22'0 0.0
2017-Sep-21 20:00N 37°06' E 025°22'0 0.0
2017-Sep-21 19:30N 37°06' E 025°22'0 0.0
2017-Sep-21 19:00N 37°06' E 025°22'0 0.0
2017-Sep-21 18:30N 37°06' E 025°22'0 0.0
2017-Sep-21 18:00N 37°06' E 025°22'0 0.0
2017-Sep-21 17:30N 37°06' E 025°22'0 0.0
2017-Sep-21 17:00N 37°06' E 025°22'0 0.0
2017-Sep-21 16:30N 37°06' E 025°22'3 5.1
2017-Sep-21 16:00N 37°08' E 025°20'5 8.4
2017-Sep-21 15:27N 37°08' E 025°14'614.4
2017-Sep-21 15:00N 37°14' E 025°17'815.8
2017-Sep-21 14:30N 37°21' E 025°19'611.3
2017-Sep-21 14:00N 37°27' E 025°20'0 0.0
2017-Sep-21 13:30N 37°27' E 025°20'0 0.0
2017-Sep-21 13:00N 37°27' E 025°20'0 0.0
2017-Sep-21 12:30N 37°27' E 025°20'0 0.0
2017-Sep-21 12:00N 37°27' E 025°20'0 0.0
2017-Sep-21 11:30N 37°27' E 025°20'0 0.0
2017-Sep-21 11:00N 37°27' E 025°20'2 4.8
2017-Sep-21 10:31N 37°26' E 025°17'2 4.1
2017-Sep-21 10:00N 37°24' E 025°16'0 0.0
2017-Sep-21 09:30N 37°24' E 025°16'0 0.0
2017-Sep-21 09:00N 37°24' E 025°16'0 0.0
2017-Sep-21 08:30N 37°24' E 025°16'0 0.0
2017-Sep-21 08:01N 37°24' E 025°16'1 1.9
2017-Sep-21 07:30N 37°23' E 025°16'815.1
2017-Sep-21 07:00N 37°16' E 025°19'714.8
2017-Sep-21 06:30N 37°09' E 025°22'2 4.1
2017-Sep-21 06:00N 37°07' E 025°21'6 6.1
2017-Sep-21 05:04N 37°08' E 025°14'115.4
2017-Sep-21 05:01N 37°08' E 025°15'612.7
2017-Sep-21 04:30N 37°06' E 025°22'0 0.1
2017-Sep-21 04:00N 37°06' E 025°22'0 0.0
2017-Sep-21 03:30N 37°06' E 025°22'0 0.0
2017-Sep-21 03:00N 37°06' E 025°22'0 0.0
2017-Sep-21 02:30N 37°06' E 025°22'0 0.0
2017-Sep-21 02:00N 37°06' E 025°22'0 0.0
2017-Sep-21 01:30N 37°06' E 025°22'0 0.0
2017-Sep-21 01:00N 37°06' E 025°22'0 0.0
2017-Sep-21 00:30N 37°06' E 025°22'0 0.0
2017-Sep-21 00:00N 37°06' E 025°22'0 0.0
2017-Sep-20 23:30N 37°06' E 025°22'0 0.0
2017-Sep-20 23:00N 37°06' E 025°22'0 0.0
2017-Sep-20 22:30N 37°06' E 025°22'0 0.0
2017-Sep-20 22:00N 37°06' E 025°22'0 0.0
2017-Sep-20 21:30N 37°06' E 025°22'0 0.0
2017-Sep-20 21:00N 37°06' E 025°22'0 0.0
2017-Sep-20 20:30N 37°06' E 025°22'0 0.0
2017-Sep-20 20:00N 37°06' E 025°22'0 0.0
2017-Sep-20 19:30N 37°06' E 025°22'0 0.0
2017-Sep-20 19:00N 37°06' E 025°22'0 0.0
2017-Sep-20 18:30N 37°06' E 025°22'0 0.0
2017-Sep-20 18:00N 37°06' E 025°22'2 5.0
2017-Sep-20 17:31N 37°05' E 025°20'5 9.2
2017-Sep-20 17:01N 37°02' E 025°16'3 0.2
2017-Sep-20 05:19N 36°59' E 025°16'3 9.0
2017-Sep-20 05:00N 37°02' E 025°16'612.2
2017-Sep-20 04:30N 37°06' E 025°21'1 1.9
2017-Sep-20 04:00N 37°06' E 025°22'0 0.0
2017-Sep-20 03:30N 37°06' E 025°22'0 0.0
2017-Sep-20 03:00N 37°06' E 025°22'0 0.0
2017-Sep-20 02:30N 37°06' E 025°22'0 0.0
2017-Sep-20 02:00N 37°06' E 025°22'0 0.0
2017-Sep-20 01:30N 37°06' E 025°22'0 0.0
2017-Sep-20 01:00N 37°06' E 025°22'0 0.0
2017-Sep-20 00:30N 37°06' E 025°22'0 0.0
2017-Sep-20 00:00N 37°06' E 025°22'0 0.0
2017-Sep-19 23:31N 37°06' E 025°22'0 0.0
2017-Sep-19 23:00N 37°06' E 025°22'0 0.0
2017-Sep-19 22:30N 37°06' E 025°22'0 0.0
2017-Sep-19 22:00N 37°06' E 025°22'0 0.0
2017-Sep-19 21:30N 37°06' E 025°22'0 0.0
2017-Sep-19 21:00N 37°06' E 025°22'0 0.0
2017-Sep-19 20:30N 37°06' E 025°22'0 0.0
2017-Sep-19 20:00N 37°06' E 025°22'0 0.0
2017-Sep-19 19:30N 37°06' E 025°22'0 0.0
2017-Sep-19 19:00N 37°06' E 025°22'0 0.0
2017-Sep-19 18:30N 37°06' E 025°22'0 0.0
2017-Sep-19 18:00N 37°06' E 025°22'0 0.0
2017-Sep-19 17:30N 37°06' E 025°22'0 0.0
2017-Sep-19 17:00N 37°06' E 025°22'0 0.0
2017-Sep-19 16:30N 37°06' E 025°22'1 2.8
2017-Sep-19 16:01N 37°07' E 025°21'510.7
2017-Sep-19 15:30N 37°08' E 025°14'510.3
2017-Sep-19 15:00N 37°13' E 025°15'816.3
2017-Sep-19 14:30N 37°21' E 025°17'713.6
2017-Sep-19 14:00N 37°27' E 025°20'0 0.0
2017-Sep-19 13:30N 37°27' E 025°20'0 0.0
2017-Sep-19 11:31N 37°27' E 025°20'0 0.1
2017-Sep-19 11:27N 37°27' E 025°20'0 0.0
2017-Sep-19 10:58N 37°27' E 025°20'2 5.3
2017-Sep-19 10:30N 37°26' E 025°17'2 4.0
2017-Sep-19 10:00N 37°24' E 025°16'0 0.0
2017-Sep-19 09:30N 37°24' E 025°16'0 0.0
2017-Sep-19 09:00N 37°24' E 025°16'0 0.0
2017-Sep-19 08:30N 37°24' E 025°16'0 0.0
2017-Sep-19 08:00N 37°24' E 025°16'0 0.0
2017-Sep-19 07:30N 37°24' E 025°16'714.1
2017-Sep-19 07:00N 37°17' E 025°18'815.9
2017-Sep-19 06:30N 37°09' E 025°21'2 4.0
2017-Sep-19 06:00N 37°07' E 025°21'510.3
2017-Sep-19 05:30N 37°08' E 025°14'1 2.1
2017-Sep-19 05:00N 37°08' E 025°15'612.8
2017-Sep-19 04:30N 37°06' E 025°22'0 0.0
2017-Sep-19 04:00N 37°06' E 025°22'0 0.0
2017-Sep-19 03:30N 37°06' E 025°22'0 0.0
2017-Sep-19 03:00N 37°06' E 025°22'0 0.0
2017-Sep-19 02:30N 37°06' E 025°22'0 0.0
2017-Sep-19 02:00N 37°06' E 025°22'0 0.0
2017-Sep-19 01:30N 37°06' E 025°22'0 0.0
2017-Sep-19 01:00N 37°06' E 025°22'0 0.0
2017-Sep-19 00:30N 37°06' E 025°22'0 0.0
2017-Sep-19 00:00N 37°06' E 025°22'0 0.0
2017-Sep-18 23:30N 37°06' E 025°22'0 0.0
2017-Sep-18 23:00N 37°06' E 025°22'0 0.0
2017-Sep-18 22:30N 37°06' E 025°22'0 0.0
2017-Sep-18 22:00N 37°06' E 025°22'0 0.0
2017-Sep-18 21:30N 37°06' E 025°22'0 0.0
2017-Sep-18 21:00N 37°06' E 025°22'0 0.0
2017-Sep-18 20:30N 37°06' E 025°22'0 0.0
2017-Sep-18 20:00N 37°06' E 025°22'0 0.0
2017-Sep-18 19:30N 37°06' E 025°22'0 0.0
2017-Sep-18 19:00N 37°06' E 025°22'0 0.0
2017-Sep-18 18:30N 37°06' E 025°22'0 0.0
2017-Sep-18 18:00N 37°06' E 025°22'0 0.0
2017-Sep-18 17:30N 37°06' E 025°22'0 0.0
2017-Sep-18 17:00N 37°06' E 025°22'0 0.0
2017-Sep-18 16:30N 37°06' E 025°22'0 0.0
2017-Sep-18 16:00N 37°06' E 025°22'0 0.1
2017-Sep-18 15:30N 37°06' E 025°22'612.8
2017-Sep-18 15:00N 37°08' E 025°15'3 7.0
2017-Sep-18 14:30N 37°12' E 025°15'816.5
2017-Sep-18 14:00N 37°20' E 025°17'8 4.1
2017-Sep-18 12:08N 37°27' E 025°20'0 0.0
2017-Sep-18 12:00N 37°27' E 025°20'0 0.0
2017-Sep-18 10:23N 37°27' E 025°20'3 7.6
2017-Sep-18 10:00N 37°25' E 025°17'2 3.3
2017-Sep-18 09:30N 37°24' E 025°16'0 0.0
2017-Sep-18 09:00N 37°24' E 025°16'0 0.0
2017-Sep-18 08:30N 37°24' E 025°16'0 0.0
2017-Sep-18 08:00N 37°24' E 025°16'0 0.0
2017-Sep-18 07:30N 37°24' E 025°16'0 0.6
2017-Sep-18 07:00N 37°24' E 025°16'815.8
2017-Sep-18 06:30N 37°16' E 025°15'815.7
2017-Sep-18 06:00N 37°08' E 025°14'4 7.1
2017-Sep-18 05:30N 37°09' E 025°18'4 8.1
2017-Sep-18 05:00N 37°06' E 025°22'0 0.0
2017-Sep-18 04:30N 37°06' E 025°22'0 0.0
2017-Sep-18 04:00N 37°06' E 025°22'0 0.0
2017-Sep-18 03:30N 37°06' E 025°22'0 0.0
2017-Sep-18 03:00N 37°06' E 025°22'0 0.0
2017-Sep-18 02:30N 37°06' E 025°22'0 0.0
2017-Sep-18 02:00N 37°06' E 025°22'0 0.0
2017-Sep-18 01:30N 37°06' E 025°22'0 0.0
2017-Sep-18 01:00N 37°06' E 025°22'0 0.0
2017-Sep-18 00:30N 37°06' E 025°22'0 0.0
2017-Sep-18 00:00N 37°06' E 025°22'0 0.0
2017-Sep-17 23:30N 37°06' E 025°22'0 0.0
2017-Sep-17 23:00N 37°06' E 025°22'0 0.0
2017-Sep-17 22:30N 37°06' E 025°22'0 0.0
2017-Sep-17 22:00N 37°06' E 025°22'0 0.0
2017-Sep-17 21:30N 37°06' E 025°22'0 0.0
2017-Sep-17 21:00N 37°06' E 025°22'0 0.0
2017-Sep-17 20:30N 37°06' E 025°22'0 0.0
2017-Sep-17 20:00N 37°06' E 025°22'0 0.0
2017-Sep-17 19:30N 37°06' E 025°22'0 0.0
2017-Sep-17 19:00N 37°06' E 025°22'0 0.0
2017-Sep-17 18:30N 37°06' E 025°22'0 0.0
2017-Sep-17 18:00N 37°06' E 025°22'0 0.0
2017-Sep-17 17:30N 37°06' E 025°22'0 0.0
2017-Sep-17 17:00N 37°06' E 025°22'0 0.0
2017-Sep-17 16:30N 37°06' E 025°22'0 0.0
2017-Sep-17 16:00N 37°06' E 025°22'0 0.0
2017-Sep-17 15:30N 37°06' E 025°22'2 4.3
2017-Sep-17 15:01N 37°05' E 025°20'5 9.8
2017-Sep-17 14:30N 37°02' E 025°16'3 0.2
2017-Sep-17 03:06N 36°59' E 025°16'216.0
2017-Sep-17 03:00N 37°01' E 025°16'1 2.2
2017-Sep-17 02:30N 37°02' E 025°16'612.9
2017-Sep-17 02:00N 37°06' E 025°22'1 1.2
2017-Sep-17 01:30N 37°06' E 025°22'0 0.0
2017-Sep-17 01:00N 37°06' E 025°22'0 0.0
2017-Sep-17 00:30N 37°06' E 025°22'0 0.0
2017-Sep-17 00:00N 37°06' E 025°22'0 0.0
2017-Sep-16 23:30N 37°06' E 025°22'0 0.0
2017-Sep-16 23:00N 37°06' E 025°22'0 0.0
2017-Sep-16 22:30N 37°06' E 025°22'0 0.0
2017-Sep-16 22:00N 37°06' E 025°22'0 0.0
2017-Sep-16 21:30N 37°06' E 025°22'0 0.0
2017-Sep-16 21:00N 37°06' E 025°22'0 0.0
2017-Sep-16 20:30N 37°06' E 025°22'0 0.0
2017-Sep-16 20:00N 37°06' E 025°22'0 0.0
2017-Sep-16 19:30N 37°06' E 025°22'0 0.0
2017-Sep-16 19:00N 37°06' E 025°22'0 0.0
2017-Sep-16 18:30N 37°06' E 025°22'0 0.0
2017-Sep-16 18:00N 37°06' E 025°22'0 0.0
2017-Sep-16 17:30N 37°06' E 025°22'0 0.0
2017-Sep-16 17:00N 37°06' E 025°22'0 0.0
2017-Sep-16 16:30N 37°06' E 025°22'3 5.8
2017-Sep-16 16:00N 37°08' E 025°20'4 8.5
2017-Sep-16 15:30N 37°08' E 025°14'714.7
2017-Sep-16 15:00N 37°15' E 025°16'816.0
2017-Sep-16 14:30N 37°22' E 025°17'5 9.3
2017-Sep-16 13:58N 37°27' E 025°20'0 0.0
2017-Sep-16 13:30N 37°27' E 025°20'0 0.0
2017-Sep-16 12:59N 37°27' E 025°20'0 0.0
2017-Sep-16 12:19N 37°27' E 025°20'0 0.0
2017-Sep-16 12:00N 37°27' E 025°20'0 0.0
2017-Sep-16 11:30N 37°27' E 025°20'0 0.0
2017-Sep-16 11:00N 37°27' E 025°20'4 8.8
2017-Sep-16 10:31N 37°24' E 025°16'0 0.2
2017-Sep-16 10:01N 37°24' E 025°16'0 0.0
2017-Sep-16 09:31N 37°24' E 025°16'0 0.0
2017-Sep-16 09:00N 37°24' E 025°16'0 0.0
2017-Sep-16 08:30N 37°24' E 025°16'0 0.0
2017-Sep-16 08:00N 37°24' E 025°16'5 9.3
2017-Sep-16 07:30N 37°19' E 025°15'816.0
2017-Sep-16 07:01N 37°11' E 025°14'3 6.6
2017-Sep-16 06:30N 37°08' E 025°14'612.9
2017-Sep-16 06:01N 37°06' E 025°22'0 0.3
2017-Sep-16 05:30N 37°06' E 025°22'0 0.0
2017-Sep-16 05:00N 37°06' E 025°22'0 0.0
2017-Sep-16 04:30N 37°06' E 025°22'0 0.0
2017-Sep-16 04:00N 37°06' E 025°22'0 0.0
2017-Sep-16 03:30N 37°06' E 025°22'0 0.0
2017-Sep-16 03:00N 37°06' E 025°22'0 0.0
2017-Sep-16 02:30N 37°06' E 025°22'0 0.0
2017-Sep-16 02:00N 37°06' E 025°22'0 0.0
2017-Sep-16 01:30N 37°06' E 025°22'0 0.0
2017-Sep-16 01:00N 37°06' E 025°22'0 0.0
2017-Sep-16 00:30N 37°06' E 025°22'0 0.0
2017-Sep-16 00:00N 37°06' E 025°22'0 0.0
2017-Sep-15 23:30N 37°06' E 025°22'0 0.0
2017-Sep-15 23:00N 37°06' E 025°22'0 0.0
2017-Sep-15 22:30N 37°06' E 025°22'0 0.0
2017-Sep-15 22:00N 37°06' E 025°22'0 0.0
2017-Sep-15 21:30N 37°06' E 025°22'0 0.0
2017-Sep-15 21:00N 37°06' E 025°22'0 0.0
2017-Sep-15 20:31N 37°06' E 025°22'0 0.0
2017-Sep-15 20:00N 37°06' E 025°22'0 0.0
2017-Sep-15 19:30N 37°06' E 025°22'0 0.0
2017-Sep-15 19:00N 37°06' E 025°22'0 0.0
2017-Sep-15 18:30N 37°06' E 025°22'0 0.0
2017-Sep-15 18:00N 37°06' E 025°22'0 0.0
2017-Sep-15 17:30N 37°06' E 025°22'0 0.0
2017-Sep-15 17:00N 37°06' E 025°22'0 0.0
2017-Sep-15 16:30N 37°06' E 025°22'0 0.0
2017-Sep-15 16:00N 37°06' E 025°22'0 0.0
2017-Sep-15 15:30N 37°06' E 025°22'612.7
2017-Sep-15 15:00N 37°09' E 025°15'3 5.6
2017-Sep-15 14:30N 37°11' E 025°15'816.0
2017-Sep-15 14:00N 37°19' E 025°16'815.5
2017-Sep-15 13:30N 37°27' E 025°19'1 1.1
2017-Sep-15 13:00N 37°27' E 025°20'0 0.0
2017-Sep-15 12:29N 37°27' E 025°20'0 0.0
2017-Sep-15 12:00N 37°27' E 025°20'0 0.0
2017-Sep-15 11:28N 37°27' E 025°20'0 0.0
2017-Sep-15 10:57N 37°27' E 025°20'0 0.0
2017-Sep-15 10:30N 37°27' E 025°20'4 9.0
2017-Sep-15 10:00N 37°24' E 025°16'0 0.1
2017-Sep-15 09:30N 37°24' E 025°16'0 0.0
2017-Sep-15 09:00N 37°24' E 025°16'0 0.0
2017-Sep-15 08:30N 37°24' E 025°16'0 0.0
2017-Sep-15 08:00N 37°24' E 025°16'0 0.0
2017-Sep-15 07:30N 37°24' E 025°16'2 3.0
2017-Sep-15 07:00N 37°22' E 025°15'816.0
2017-Sep-15 06:30N 37°14' E 025°14'710.0
2017-Sep-15 05:49N 37°08' E 025°14'411.8
2017-Sep-15 05:31N 37°09' E 025°18'4 8.7
2017-Sep-15 05:00N 37°06' E 025°22'0 0.0
2017-Sep-15 04:30N 37°06' E 025°22'0 0.0
2017-Sep-15 04:00N 37°06' E 025°22'0 0.0
2017-Sep-15 03:30N 37°06' E 025°22'0 0.0
2017-Sep-15 03:00N 37°06' E 025°22'0 0.0
2017-Sep-15 02:30N 37°06' E 025°22'0 0.0
2017-Sep-15 02:00N 37°06' E 025°22'0 0.0
2017-Sep-15 01:30N 37°06' E 025°22'0 0.0
2017-Sep-15 01:00N 37°06' E 025°22'0 0.0
2017-Sep-15 00:30N 37°06' E 025°22'0 0.0
2017-Sep-15 00:00N 37°06' E 025°22'0 0.0
2017-Sep-14 23:30N 37°06' E 025°22'0 0.0
2017-Sep-14 23:00N 37°06' E 025°22'0 0.0
2017-Sep-14 22:30N 37°06' E 025°22'0 0.0
2017-Sep-14 22:00N 37°06' E 025°22'0 0.0
2017-Sep-14 21:30N 37°06' E 025°22'0 0.0
2017-Sep-14 21:00N 37°06' E 025°22'0 0.0
2017-Sep-14 20:30N 37°06' E 025°22'0 0.0
2017-Sep-14 20:00N 37°06' E 025°22'0 0.0
2017-Sep-14 19:30N 37°06' E 025°22'0 0.0
2017-Sep-14 19:00N 37°06' E 025°22'0 0.0
2017-Sep-14 18:30N 37°06' E 025°22'0 0.0
2017-Sep-14 18:00N 37°06' E 025°22'0 0.0
2017-Sep-14 17:30N 37°06' E 025°22'0 0.0
2017-Sep-14 17:00N 37°06' E 025°22'0 0.0
2017-Sep-14 16:30N 37°06' E 025°22'3 5.4
2017-Sep-14 16:01N 37°08' E 025°20'5 9.0
2017-Sep-14 15:30N 37°08' E 025°14'714.9
2017-Sep-14 15:00N 37°15' E 025°14'714.9
2017-Sep-14 14:31N 37°22' E 025°16'610.6
2017-Sep-14 13:59N 37°27' E 025°20'0 0.0
2017-Sep-14 13:25N 37°27' E 025°20'0 0.0
2017-Sep-14 12:50N 37°27' E 025°20'0 0.0
2017-Sep-14 12:30N 37°27' E 025°20'0 0.0
2017-Sep-14 12:00N 37°27' E 025°20'0 0.0
2017-Sep-14 11:28N 37°27' E 025°20'0 0.0
2017-Sep-14 11:00N 37°27' E 025°20'4 8.4
2017-Sep-14 10:30N 37°24' E 025°16'0 0.5
2017-Sep-14 10:00N 37°24' E 025°16'0 0.0
2017-Sep-14 09:30N 37°24' E 025°16'0 0.0
2017-Sep-14 09:00N 37°24' E 025°16'0 0.0
2017-Sep-14 08:30N 37°24' E 025°16'0 0.0
2017-Sep-14 08:00N 37°24' E 025°16'0 0.3
2017-Sep-14 07:31N 37°24' E 025°16'815.6
2017-Sep-14 07:01N 37°16' E 025°18'815.7
2017-Sep-14 06:31N 37°09' E 025°21'2 3.4
2017-Sep-14 06:01N 37°07' E 025°21'610.1
2017-Sep-14 05:28N 37°08' E 025°14'1 1.6
2017-Sep-14 05:01N 37°08' E 025°15'612.9
2017-Sep-14 04:30N 37°06' E 025°22'0 0.2
2017-Sep-14 04:00N 37°06' E 025°22'0 0.0
2017-Sep-14 03:30N 37°06' E 025°22'0 0.0
2017-Sep-14 03:00N 37°06' E 025°22'0 0.0
2017-Sep-14 02:30N 37°06' E 025°22'0 0.0
2017-Sep-14 02:00N 37°06' E 025°22'0 0.0
2017-Sep-14 01:30N 37°06' E 025°22'0 0.0
2017-Sep-14 01:00N 37°06' E 025°22'0 0.0
2017-Sep-14 00:30N 37°06' E 025°22'0 0.0
2017-Sep-14 00:00N 37°06' E 025°22'  

Dump ship's entire track history